sensor_id;sensor_type;location;lat;lon;timestamp;P1;durP1;ratioP1;P2;durP2;ratioP2
77038;SDS011;65970;50.476;4.840;2024-02-28T00:03:11;20.35;;;12.77;;
77038;SDS011;65970;50.476;4.840;2024-02-28T00:08:11;22.83;;;12.15;;
77038;SDS011;65970;50.476;4.840;2024-02-28T00:13:12;22.45;;;12.35;;
77038;SDS011;65970;50.476;4.840;2024-02-28T00:18:14;19.23;;;10.95;;
77038;SDS011;65970;50.476;4.840;2024-02-28T00:23:14;17.95;;;11.13;;
77038;SDS011;65970;50.476;4.840;2024-02-28T00:28:15;21.17;;;11.70;;
77038;SDS011;65970;50.476;4.840;2024-02-28T00:33:16;17.50;;;10.40;;
77038;SDS011;65970;50.476;4.840;2024-02-28T00:38:16;21.58;;;10.63;;
77038;SDS011;65970;50.476;4.840;2024-02-28T00:43:17;19.48;;;11.82;;
77038;SDS011;65970;50.476;4.840;2024-02-28T00:48:17;16.58;;;10.63;;
77038;SDS011;65970;50.476;4.840;2024-02-28T00:53:18;18.15;;;10.75;;
77038;SDS011;65970;50.476;4.840;2024-02-28T00:58:19;21.85;;;11.65;;
77038;SDS011;65970;50.476;4.840;2024-02-28T01:03:20;19.65;;;11.15;;
77038;SDS011;65970;50.476;4.840;2024-02-28T01:08:20;18.02;;;11.00;;
77038;SDS011;65970;50.476;4.840;2024-02-28T01:13:21;16.77;;;10.13;;
77038;SDS011;65970;50.476;4.840;2024-02-28T01:18:21;18.08;;;10.45;;
77038;SDS011;65970;50.476;4.840;2024-02-28T01:23:22;21.00;;;11.10;;
77038;SDS011;65970;50.476;4.840;2024-02-28T01:28:23;19.70;;;10.68;;
77038;SDS011;65970;50.476;4.840;2024-02-28T01:33:23;18.17;;;10.40;;
77038;SDS011;65970;50.476;4.840;2024-02-28T01:38:24;19.27;;;11.77;;
77038;SDS011;65970;50.476;4.840;2024-02-28T01:43:24;14.35;;;9.02;;
77038;SDS011;65970;50.476;4.840;2024-02-28T01:48:25;19.98;;;11.38;;
77038;SDS011;65970;50.476;4.840;2024-02-28T01:53:25;15.75;;;9.30;;
77038;SDS011;65970;50.476;4.840;2024-02-28T01:58:26;20.38;;;10.48;;
77038;SDS011;65970;50.476;4.840;2024-02-28T02:03:26;16.10;;;9.77;;
77038;SDS011;65970;50.476;4.840;2024-02-28T02:08:27;14.73;;;8.77;;
77038;SDS011;65970;50.476;4.840;2024-02-28T02:13:27;17.65;;;9.20;;
77038;SDS011;65970;50.476;4.840;2024-02-28T02:18:28;13.43;;;8.48;;
77038;SDS011;65970;50.476;4.840;2024-02-28T02:23:29;16.27;;;8.80;;
77038;SDS011;65970;50.476;4.840;2024-02-28T02:28:30;13.07;;;7.90;;
77038;SDS011;65970;50.476;4.840;2024-02-28T02:33:30;14.90;;;7.97;;
77038;SDS011;65970;50.476;4.840;2024-02-28T02:38:31;12.65;;;7.65;;
77038;SDS011;65970;50.476;4.840;2024-02-28T02:43:31;12.65;;;8.00;;
77038;SDS011;65970;50.476;4.840;2024-02-28T02:48:32;10.73;;;7.68;;
77038;SDS011;65970;50.476;4.840;2024-02-28T02:53:33;10.13;;;6.95;;
77038;SDS011;65970;50.476;4.840;2024-02-28T02:58:33;9.68;;;6.40;;
77038;SDS011;65970;50.476;4.840;2024-02-28T03:03:34;11.90;;;6.93;;
77038;SDS011;65970;50.476;4.840;2024-02-28T03:08:35;16.33;;;8.57;;
77038;SDS011;65970;50.476;4.840;2024-02-28T03:13:35;13.95;;;7.72;;
77038;SDS011;65970;50.476;4.840;2024-02-28T03:18:36;13.60;;;8.43;;
77038;SDS011;65970;50.476;4.840;2024-02-28T03:23:37;14.35;;;8.55;;
77038;SDS011;65970;50.476;4.840;2024-02-28T03:28:37;14.52;;;7.80;;
77038;SDS011;65970;50.476;4.840;2024-02-28T03:33:38;15.32;;;9.25;;
77038;SDS011;65970;50.476;4.840;2024-02-28T03:38:38;10.35;;;7.57;;
77038;SDS011;65970;50.476;4.840;2024-02-28T03:43:39;12.18;;;7.60;;
77038;SDS011;65970;50.476;4.840;2024-02-28T03:48:39;9.73;;;6.90;;
77038;SDS011;65970;50.476;4.840;2024-02-28T03:53:40;11.93;;;7.35;;
77038;SDS011;65970;50.476;4.840;2024-02-28T03:58:41;10.23;;;6.40;;
77038;SDS011;65970;50.476;4.840;2024-02-28T04:03:41;10.68;;;6.78;;
77038;SDS011;65970;50.476;4.840;2024-02-28T04:08:42;12.27;;;7.32;;
77038;SDS011;65970;50.476;4.840;2024-02-28T04:13:42;10.68;;;6.70;;
77038;SDS011;65970;50.476;4.840;2024-02-28T04:18:43;12.02;;;7.95;;
77038;SDS011;65970;50.476;4.840;2024-02-28T04:23:44;8.25;;;6.45;;
77038;SDS011;65970;50.476;4.840;2024-02-28T04:28:44;8.32;;;5.78;;
77038;SDS011;65970;50.476;4.840;2024-02-28T04:33:45;8.65;;;5.90;;
77038;SDS011;65970;50.476;4.840;2024-02-28T04:38:45;9.65;;;6.75;;
77038;SDS011;65970;50.476;4.840;2024-02-28T04:43:46;7.35;;;5.38;;
77038;SDS011;65970;50.476;4.840;2024-02-28T04:48:46;7.80;;;5.78;;
77038;SDS011;65970;50.476;4.840;2024-02-28T04:53:47;8.57;;;6.05;;
77038;SDS011;65970;50.476;4.840;2024-02-28T04:58:47;7.65;;;5.18;;
77038;SDS011;65970;50.476;4.840;2024-02-28T05:03:48;7.22;;;4.20;;
77038;SDS011;65970;50.476;4.840;2024-02-28T05:08:48;8.68;;;5.78;;
77038;SDS011;65970;50.476;4.840;2024-02-28T05:13:49;7.10;;;4.95;;
77038;SDS011;65970;50.476;4.840;2024-02-28T05:18:49;9.55;;;5.63;;
77038;SDS011;65970;50.476;4.840;2024-02-28T05:23:50;9.18;;;5.65;;
77038;SDS011;65970;50.476;4.840;2024-02-28T05:28:50;10.07;;;5.63;;
77038;SDS011;65970;50.476;4.840;2024-02-28T05:33:51;8.45;;;5.07;;
77038;SDS011;65970;50.476;4.840;2024-02-28T05:38:56;9.85;;;5.72;;
77038;SDS011;65970;50.476;4.840;2024-02-28T05:43:57;10.95;;;5.30;;
77038;SDS011;65970;50.476;4.840;2024-02-28T05:48:58;8.27;;;5.00;;
77038;SDS011;65970;50.476;4.840;2024-02-28T05:53:58;8.27;;;5.07;;
77038;SDS011;65970;50.476;4.840;2024-02-28T05:58:59;6.65;;;4.68;;
77038;SDS011;65970;50.476;4.840;2024-02-28T06:04:00;9.52;;;5.57;;
77038;SDS011;65970;50.476;4.840;2024-02-28T06:09:00;8.52;;;6.03;;
77038;SDS011;65970;50.476;4.840;2024-02-28T06:14:01;8.77;;;5.93;;
77038;SDS011;65970;50.476;4.840;2024-02-28T06:19:01;8.55;;;4.82;;
77038;SDS011;65970;50.476;4.840;2024-02-28T06:24:02;8.43;;;5.15;;
77038;SDS011;65970;50.476;4.840;2024-02-28T06:29:02;8.45;;;4.70;;
77038;SDS011;65970;50.476;4.840;2024-02-28T06:34:03;8.32;;;5.05;;
77038;SDS011;65970;50.476;4.840;2024-02-28T06:39:03;9.27;;;4.78;;
77038;SDS011;65970;50.476;4.840;2024-02-28T06:44:04;8.60;;;4.85;;
77038;SDS011;65970;50.476;4.840;2024-02-28T06:49:04;7.70;;;4.93;;
77038;SDS011;65970;50.476;4.840;2024-02-28T06:54:05;10.85;;;4.57;;
77038;SDS011;65970;50.476;4.840;2024-02-28T06:59:08;9.77;;;4.65;;
77038;SDS011;65970;50.476;4.840;2024-02-28T07:04:09;9.20;;;5.32;;
77038;SDS011;65970;50.476;4.840;2024-02-28T07:09:09;9.43;;;4.80;;
77038;SDS011;65970;50.476;4.840;2024-02-28T07:14:11;8.48;;;5.20;;
77038;SDS011;65970;50.476;4.840;2024-02-28T07:19:11;8.27;;;4.97;;
77038;SDS011;65970;50.476;4.840;2024-02-28T07:24:12;6.75;;;4.63;;
77038;SDS011;65970;50.476;4.840;2024-02-28T07:29:12;10.05;;;5.47;;
77038;SDS011;65970;50.476;4.840;2024-02-28T07:34:13;9.43;;;4.68;;
77038;SDS011;65970;50.476;4.840;2024-02-28T07:39:13;8.55;;;4.80;;
77038;SDS011;65970;50.476;4.840;2024-02-28T07:44:14;11.23;;;6.03;;
77038;SDS011;65970;50.476;4.840;2024-02-28T07:49:14;7.10;;;4.03;;
77038;SDS011;65970;50.476;4.840;2024-02-28T07:54:15;7.97;;;4.28;;
77038;SDS011;65970;50.476;4.840;2024-02-28T07:59:15;8.05;;;4.43;;
77038;SDS011;65970;50.476;4.840;2024-02-28T08:04:16;9.65;;;5.07;;
77038;SDS011;65970;50.476;4.840;2024-02-28T08:09:16;9.02;;;5.07;;
77038;SDS011;65970;50.476;4.840;2024-02-28T08:14:17;10.18;;;4.47;;
77038;SDS011;65970;50.476;4.840;2024-02-28T08:19:18;9.63;;;5.38;;
77038;SDS011;65970;50.476;4.840;2024-02-28T08:24:18;9.55;;;4.60;;
77038;SDS011;65970;50.476;4.840;2024-02-28T08:29:19;6.13;;;3.67;;
77038;SDS011;65970;50.476;4.840;2024-02-28T08:34:19;8.20;;;3.90;;
77038;SDS011;65970;50.476;4.840;2024-02-28T08:39:20;11.07;;;4.40;;
77038;SDS011;65970;50.476;4.840;2024-02-28T08:44:20;7.10;;;4.30;;
77038;SDS011;65970;50.476;4.840;2024-02-28T08:49:21;8.02;;;4.13;;
77038;SDS011;65970;50.476;4.840;2024-02-28T08:54:21;7.10;;;4.32;;
77038;SDS011;65970;50.476;4.840;2024-02-28T08:59:22;5.07;;;2.75;;
77038;SDS011;65970;50.476;4.840;2024-02-28T09:04:22;3.42;;;2.53;;
77038;SDS011;65970;50.476;4.840;2024-02-28T09:09:23;4.00;;;3.25;;
77038;SDS011;65970;50.476;4.840;2024-02-28T09:14:23;4.35;;;2.45;;
77038;SDS011;65970;50.476;4.840;2024-02-28T09:19:24;3.72;;;2.85;;
77038;SDS011;65970;50.476;4.840;2024-02-28T09:24:25;6.82;;;3.67;;
77038;SDS011;65970;50.476;4.840;2024-02-28T09:29:26;7.25;;;3.35;;
77038;SDS011;65970;50.476;4.840;2024-02-28T09:34:26;5.43;;;3.67;;
77038;SDS011;65970;50.476;4.840;2024-02-28T09:39:27;7.72;;;4.07;;
77038;SDS011;65970;50.476;4.840;2024-02-28T09:44:27;5.82;;;3.67;;
77038;SDS011;65970;50.476;4.840;2024-02-28T09:49:30;7.70;;;3.47;;
77038;SDS011;65970;50.476;4.840;2024-02-28T09:54:32;4.43;;;2.23;;
77038;SDS011;65970;50.476;4.840;2024-02-28T09:59:32;3.28;;;1.77;;
77038;SDS011;65970;50.476;4.840;2024-02-28T10:04:34;4.20;;;2.00;;
77038;SDS011;65970;50.476;4.840;2024-02-28T10:09:34;6.00;;;2.53;;
77038;SDS011;65970;50.476;4.840;2024-02-28T10:14:35;3.35;;;1.60;;
77038;SDS011;65970;50.476;4.840;2024-02-28T10:19:36;2.72;;;1.77;;
77038;SDS011;65970;50.476;4.840;2024-02-28T10:24:36;4.53;;;2.45;;
77038;SDS011;65970;50.476;4.840;2024-02-28T10:29:37;3.40;;;2.60;;
77038;SDS011;65970;50.476;4.840;2024-02-28T10:34:37;6.20;;;3.67;;
77038;SDS011;65970;50.476;4.840;2024-02-28T10:39:38;8.98;;;3.35;;
77038;SDS011;65970;50.476;4.840;2024-02-28T10:44:39;6.35;;;2.80;;
77038;SDS011;65970;50.476;4.840;2024-02-28T10:49:42;6.38;;;3.25;;
77038;SDS011;65970;50.476;4.840;2024-02-28T10:54:43;7.82;;;3.60;;
77038;SDS011;65970;50.476;4.840;2024-02-28T10:59:49;8.32;;;3.60;;
77038;SDS011;65970;50.476;4.840;2024-02-28T11:04:51;8.02;;;3.13;;
77038;SDS011;65970;50.476;4.840;2024-02-28T11:09:55;7.05;;;3.05;;
77038;SDS011;65970;50.476;4.840;2024-02-28T11:15:04;5.72;;;3.20;;
77038;SDS011;65970;50.476;4.840;2024-02-28T11:20:11;5.00;;;2.63;;
77038;SDS011;65970;50.476;4.840;2024-02-28T11:25:12;8.45;;;4.10;;
77038;SDS011;65970;50.476;4.840;2024-02-28T11:30:13;3.58;;;1.70;;
77038;SDS011;65970;50.476;4.840;2024-02-28T11:35:14;5.47;;;2.17;;
77038;SDS011;65970;50.476;4.840;2024-02-28T11:40:15;5.25;;;1.80;;
77038;SDS011;65970;50.476;4.840;2024-02-28T11:45:15;6.05;;;1.80;;
77038;SDS011;65970;50.476;4.840;2024-02-28T11:50:16;3.20;;;1.35;;
77038;SDS011;65970;50.476;4.840;2024-02-28T11:55:16;1.48;;;1.25;;
77038;SDS011;65970;50.476;4.840;2024-02-28T12:00:17;1.77;;;1.48;;
77038;SDS011;65970;50.476;4.840;2024-02-28T12:05:19;2.33;;;1.30;;
77038;SDS011;65970;50.476;4.840;2024-02-28T12:10:20;3.65;;;1.92;;
77038;SDS011;65970;50.476;4.840;2024-02-28T12:15:22;3.30;;;1.88;;
77038;SDS011;65970;50.476;4.840;2024-02-28T12:20:22;3.78;;;1.33;;
77038;SDS011;65970;50.476;4.840;2024-02-28T12:25:23;2.15;;;1.80;;
77038;SDS011;65970;50.476;4.840;2024-02-28T12:30:24;3.08;;;1.65;;
77038;SDS011;65970;50.476;4.840;2024-02-28T12:35:26;1.90;;;1.13;;
77038;SDS011;65970;50.476;4.840;2024-02-28T12:40:27;1.10;;;0.83;;
77038;SDS011;65970;50.476;4.840;2024-02-28T12:45:27;3.03;;;1.15;;
77038;SDS011;65970;50.476;4.840;2024-02-28T12:50:28;1.05;;;0.95;;
77038;SDS011;65970;50.476;4.840;2024-02-28T12:55:28;1.63;;;1.23;;
77038;SDS011;65970;50.476;4.840;2024-02-28T13:00:29;2.03;;;1.65;;
77038;SDS011;65970;50.476;4.840;2024-02-28T13:05:31;0.95;;;0.65;;
77038;SDS011;65970;50.476;4.840;2024-02-28T13:10:31;1.95;;;1.05;;
77038;SDS011;65970;50.476;4.840;2024-02-28T13:15:32;0.85;;;0.73;;
77038;SDS011;65970;50.476;4.840;2024-02-28T13:20:33;0.85;;;0.70;;
77038;SDS011;65970;50.476;4.840;2024-02-28T13:25:34;0.88;;;0.88;;
77038;SDS011;65970;50.476;4.840;2024-02-28T13:30:34;1.33;;;1.00;;
77038;SDS011;65970;50.476;4.840;2024-02-28T13:35:35;0.93;;;0.93;;
77038;SDS011;65970;50.476;4.840;2024-02-28T13:40:35;1.20;;;0.98;;
77038;SDS011;65970;50.476;4.840;2024-02-28T13:45:37;1.48;;;0.75;;
77038;SDS011;65970;50.476;4.840;2024-02-28T13:50:38;1.25;;;0.90;;
77038;SDS011;65970;50.476;4.840;2024-02-28T13:55:40;1.85;;;0.82;;
77038;SDS011;65970;50.476;4.840;2024-02-28T14:00:46;0.82;;;0.82;;
77038;SDS011;65970;50.476;4.840;2024-02-28T14:05:47;1.80;;;0.93;;
77038;SDS011;65970;50.476;4.840;2024-02-28T14:10:47;2.15;;;1.15;;
77038;SDS011;65970;50.476;4.840;2024-02-28T14:15:48;1.10;;;0.98;;
77038;SDS011;65970;50.476;4.840;2024-02-28T14:20:50;1.70;;;1.17;;
77038;SDS011;65970;50.476;4.840;2024-02-28T14:25:50;1.85;;;1.42;;
77038;SDS011;65970;50.476;4.840;2024-02-28T14:30:51;1.15;;;0.98;;
77038;SDS011;65970;50.476;4.840;2024-02-28T14:35:51;2.08;;;1.40;;
77038;SDS011;65970;50.476;4.840;2024-02-28T14:40:52;1.80;;;1.40;;
77038;SDS011;65970;50.476;4.840;2024-02-28T14:45:52;2.03;;;1.35;;
77038;SDS011;65970;50.476;4.840;2024-02-28T14:50:53;3.42;;;1.27;;
77038;SDS011;65970;50.476;4.840;2024-02-28T14:55:54;2.05;;;1.73;;
77038;SDS011;65970;50.476;4.840;2024-02-28T15:00:54;2.45;;;1.80;;
77038;SDS011;65970;50.476;4.840;2024-02-28T15:05:55;2.92;;;1.13;;
77038;SDS011;65970;50.476;4.840;2024-02-28T15:10:58;3.05;;;1.75;;
77038;SDS011;65970;50.476;4.840;2024-02-28T15:15:58;4.03;;;1.65;;
77038;SDS011;65970;50.476;4.840;2024-02-28T15:20:59;2.22;;;1.90;;
77038;SDS011;65970;50.476;4.840;2024-02-28T15:25:59;3.55;;;1.35;;
77038;SDS011;65970;50.476;4.840;2024-02-28T15:31:00;1.70;;;1.27;;
77038;SDS011;65970;50.476;4.840;2024-02-28T15:36:03;1.73;;;1.15;;
77038;SDS011;65970;50.476;4.840;2024-02-28T15:41:03;1.73;;;1.02;;
77038;SDS011;65970;50.476;4.840;2024-02-28T15:46:04;1.67;;;1.08;;
77038;SDS011;65970;50.476;4.840;2024-02-28T15:51:05;2.20;;;1.17;;
77038;SDS011;65970;50.476;4.840;2024-02-28T15:56:05;0.70;;;0.70;;
77038;SDS011;65970;50.476;4.840;2024-02-28T16:01:06;1.90;;;1.13;;
77038;SDS011;65970;50.476;4.840;2024-02-28T16:06:07;1.88;;;1.30;;
77038;SDS011;65970;50.476;4.840;2024-02-28T16:11:08;0.90;;;0.80;;
77038;SDS011;65970;50.476;4.840;2024-02-28T16:16:09;1.55;;;1.13;;
77038;SDS011;65970;50.476;4.840;2024-02-28T16:21:10;1.20;;;0.98;;
77038;SDS011;65970;50.476;4.840;2024-02-28T16:26:10;4.43;;;1.33;;
77038;SDS011;65970;50.476;4.840;2024-02-28T16:31:11;1.27;;;0.90;;
77038;SDS011;65970;50.476;4.840;2024-02-28T16:36:11;1.00;;;0.95;;
77038;SDS011;65970;50.476;4.840;2024-02-28T16:41:12;4.72;;;1.17;;
77038;SDS011;65970;50.476;4.840;2024-02-28T16:46:12;1.80;;;0.90;;
77038;SDS011;65970;50.476;4.840;2024-02-28T16:51:13;1.42;;;1.10;;
77038;SDS011;65970;50.476;4.840;2024-02-28T16:56:14;4.00;;;0.98;;
77038;SDS011;65970;50.476;4.840;2024-02-28T17:01:14;2.35;;;1.27;;
77038;SDS011;65970;50.476;4.840;2024-02-28T17:06:15;1.50;;;1.20;;
77038;SDS011;65970;50.476;4.840;2024-02-28T17:11:16;2.33;;;1.27;;
77038;SDS011;65970;50.476;4.840;2024-02-28T17:16:17;2.15;;;1.48;;
77038;SDS011;65970;50.476;4.840;2024-02-28T17:21:17;1.77;;;1.42;;
77038;SDS011;65970;50.476;4.840;2024-02-28T17:26:18;2.25;;;1.60;;
77038;SDS011;65970;50.476;4.840;2024-02-28T17:31:18;1.73;;;1.60;;
77038;SDS011;65970;50.476;4.840;2024-02-28T17:36:19;3.63;;;1.83;;
77038;SDS011;65970;50.476;4.840;2024-02-28T17:41:20;2.10;;;1.70;;
77038;SDS011;65970;50.476;4.840;2024-02-28T17:46:20;1.65;;;1.55;;
77038;SDS011;65970;50.476;4.840;2024-02-28T17:51:21;2.47;;;1.75;;
77038;SDS011;65970;50.476;4.840;2024-02-28T17:56:22;3.33;;;1.75;;
77038;SDS011;65970;50.476;4.840;2024-02-28T18:01:22;1.30;;;1.10;;
77038;SDS011;65970;50.476;4.840;2024-02-28T18:06:23;1.85;;;1.40;;
77038;SDS011;65970;50.476;4.840;2024-02-28T18:11:26;1.63;;;1.00;;
77038;SDS011;65970;50.476;4.840;2024-02-28T18:16:27;1.08;;;0.98;;
77038;SDS011;65970;50.476;4.840;2024-02-28T18:21:28;1.88;;;0.88;;
77038;SDS011;65970;50.476;4.840;2024-02-28T18:26:28;2.47;;;1.23;;
77038;SDS011;65970;50.476;4.840;2024-02-28T18:31:29;1.35;;;1.13;;
77038;SDS011;65970;50.476;4.840;2024-02-28T18:36:29;1.30;;;0.98;;
77038;SDS011;65970;50.476;4.840;2024-02-28T18:41:30;2.70;;;1.27;;
77038;SDS011;65970;50.476;4.840;2024-02-28T18:46:30;1.77;;;1.20;;
77038;SDS011;65970;50.476;4.840;2024-02-28T18:51:31;1.70;;;1.27;;
77038;SDS011;65970;50.476;4.840;2024-02-28T18:56:33;2.13;;;1.15;;
77038;SDS011;65970;50.476;4.840;2024-02-28T19:01:33;2.75;;;1.00;;
77038;SDS011;65970;50.476;4.840;2024-02-28T19:06:34;1.00;;;0.90;;
77038;SDS011;65970;50.476;4.840;2024-02-28T19:11:34;2.33;;;1.65;;
77038;SDS011;65970;50.476;4.840;2024-02-28T19:16:35;3.15;;;1.27;;
77038;SDS011;65970;50.476;4.840;2024-02-28T19:21:38;2.92;;;2.17;;
77038;SDS011;65970;50.476;4.840;2024-02-28T19:26:39;2.28;;;1.63;;
77038;SDS011;65970;50.476;4.840;2024-02-28T19:31:39;3.30;;;1.88;;
77038;SDS011;65970;50.476;4.840;2024-02-28T19:36:40;2.15;;;1.67;;
77038;SDS011;65970;50.476;4.840;2024-02-28T19:41:40;2.38;;;1.38;;
77038;SDS011;65970;50.476;4.840;2024-02-28T19:46:44;1.95;;;1.40;;
77038;SDS011;65970;50.476;4.840;2024-02-28T19:51:45;4.38;;;1.65;;
77038;SDS011;65970;50.476;4.840;2024-02-28T19:56:45;1.92;;;1.50;;
77038;SDS011;65970;50.476;4.840;2024-02-28T20:01:46;3.42;;;1.50;;
77038;SDS011;65970;50.476;4.840;2024-02-28T20:06:46;2.53;;;1.90;;
77038;SDS011;65970;50.476;4.840;2024-02-28T20:11:47;6.20;;;1.83;;
77038;SDS011;65970;50.476;4.840;2024-02-28T20:16:48;3.08;;;2.13;;
77038;SDS011;65970;50.476;4.840;2024-02-28T20:21:48;5.18;;;2.22;;
77038;SDS011;65970;50.476;4.840;2024-02-28T20:26:49;2.75;;;1.45;;
77038;SDS011;65970;50.476;4.840;2024-02-28T20:31:49;2.47;;;1.65;;
77038;SDS011;65970;50.476;4.840;2024-02-28T20:36:50;2.33;;;1.98;;
77038;SDS011;65970;50.476;4.840;2024-02-28T20:41:50;2.38;;;1.75;;
77038;SDS011;65970;50.476;4.840;2024-02-28T20:46:51;3.33;;;2.30;;
77038;SDS011;65970;50.476;4.840;2024-02-28T20:51:51;4.68;;;2.65;;
77038;SDS011;65970;50.476;4.840;2024-02-28T20:56:52;2.90;;;2.30;;
77038;SDS011;65970;50.476;4.840;2024-02-28T21:01:52;3.97;;;2.92;;
77038;SDS011;65970;50.476;4.840;2024-02-28T21:06:53;3.88;;;2.80;;
77038;SDS011;65970;50.476;4.840;2024-02-28T21:12:03;5.07;;;2.72;;
77038;SDS011;65970;50.476;4.840;2024-02-28T21:17:04;4.65;;;2.90;;
77038;SDS011;65970;50.476;4.840;2024-02-28T21:22:05;5.28;;;2.75;;
77038;SDS011;65970;50.476;4.840;2024-02-28T21:27:05;6.05;;;2.88;;
77038;SDS011;65970;50.476;4.840;2024-02-28T21:32:06;4.97;;;3.00;;
77038;SDS011;65970;50.476;4.840;2024-02-28T21:37:06;7.25;;;3.00;;
77038;SDS011;65970;50.476;4.840;2024-02-28T21:42:07;6.40;;;2.60;;
77038;SDS011;65970;50.476;4.840;2024-02-28T21:47:07;5.15;;;3.90;;
77038;SDS011;65970;50.476;4.840;2024-02-28T21:52:09;6.80;;;3.53;;
77038;SDS011;65970;50.476;4.840;2024-02-28T21:57:10;6.32;;;3.15;;
77038;SDS011;65970;50.476;4.840;2024-02-28T22:02:11;5.55;;;2.88;;
77038;SDS011;65970;50.476;4.840;2024-02-28T22:07:11;6.05;;;3.47;;
77038;SDS011;65970;50.476;4.840;2024-02-28T22:12:12;5.97;;;2.88;;
77038;SDS011;65970;50.476;4.840;2024-02-28T22:17:12;7.18;;;3.83;;
77038;SDS011;65970;50.476;4.840;2024-02-28T22:22:13;7.05;;;3.75;;
77038;SDS011;65970;50.476;4.840;2024-02-28T22:27:14;8.10;;;4.03;;
77038;SDS011;65970;50.476;4.840;2024-02-28T22:32:14;10.02;;;4.63;;
77038;SDS011;65970;50.476;4.840;2024-02-28T22:37:15;8.90;;;3.80;;
77038;SDS011;65970;50.476;4.840;2024-02-28T22:42:15;7.28;;;3.80;;
77038;SDS011;65970;50.476;4.840;2024-02-28T22:47:16;6.43;;;3.90;;
77038;SDS011;65970;50.476;4.840;2024-02-28T22:52:16;10.48;;;5.03;;
77038;SDS011;65970;50.476;4.840;2024-02-28T22:57:17;9.80;;;4.90;;
77038;SDS011;65970;50.476;4.840;2024-02-28T23:02:17;12.05;;;4.47;;
77038;SDS011;65970;50.476;4.840;2024-02-28T23:07:18;7.82;;;3.50;;
77038;SDS011;65970;50.476;4.840;2024-02-28T23:12:18;8.57;;;4.65;;
77038;SDS011;65970;50.476;4.840;2024-02-28T23:17:19;10.48;;;5.00;;
77038;SDS011;65970;50.476;4.840;2024-02-28T23:22:19;7.63;;;4.00;;
77038;SDS011;65970;50.476;4.840;2024-02-28T23:27:20;6.47;;;4.43;;
77038;SDS011;65970;50.476;4.840;2024-02-28T23:32:20;10.15;;;6.38;;
77038;SDS011;65970;50.476;4.840;2024-02-28T23:37:21;7.82;;;4.75;;
77038;SDS011;65970;50.476;4.840;2024-02-28T23:42:21;7.97;;;4.38;;
77038;SDS011;65970;50.476;4.840;2024-02-28T23:47:22;7.43;;;4.07;;
77038;SDS011;65970;50.476;4.840;2024-02-28T23:52:22;9.95;;;5.22;;
77038;SDS011;65970;50.476;4.840;2024-02-28T23:57:23;13.77;;;4.88;;
